Nearby METAR Reports

 

KSLC - Salt Lake City, Utah, USA
Distance from station: SW 8mi, 13km
Updated: Sun, 24-Sep-2017 10:54am MDT
Light rain, Overcast
Light rain, Overcast
 Wind from NNW
Wind: NNW 15 mph , 24 km/h
Temperature: 46°F , 8°C
Wind Chill: 40°F , 4°C
Dew Point: 43°F , 6°C
Humidity: 87%
Barometer: 29.94 inHg , 1013.9 hPa
Summary: Light rain
Clouds: Overcast
Visibility: 10 miles , 16 km
Cloud details: Few Clouds 2000 ft
Overcast 3000 ft
2017/09/24 16:54 KSLC 241654Z 33013KT 10SM -RA FEW020 OVC030 08/06 A2994 RMK AO2 SLP126 P0002 T00780056
KU42 - Salt Lake Muni, Utah, USA
Distance from station: SSW 18mi, 28km
Updated: Sun, 24-Sep-2017 11:35am MDT
Overcast
Overcast
 Wind from NNW
Wind: NNW 7 mph , 11 km/h
Temperature: 43°F , 6°C
Wind Chill: 39°F , 4°C
Dew Point: 43°F , 6°C
Humidity: 100%
Barometer: 29.97 inHg , 1014.9 hPa
Clouds: Overcast
Visibility: 5 miles , 8 km
Cloud details: Partly cloudy 1100 ft
Overcast 2300 ft
2017/09/24 17:35 KU42 241735Z AUTO 34006KT 5SM SCT011 OVC023 06/06 A2997 RMK AO1 P0002 T00590059
 
KHIF - Hill Afb/Ogden, Utah, USA
Distance from station: NNW 19mi, 30km
Updated: Sun, 24-Sep-2017 11:28am MDT
Light rain, Mostly cloudy
Light rain, Mostly cloudy
 Wind from calm
Wind: Calm
Temperature: 46°F , 8°C
Dew Point: 41°F , 5°C
Humidity: 82%
Barometer: 29.94 inHg , 1013.9 hPa
Summary: Light rain
Clouds: Mostly cloudy
Visibility: 10 miles , 16 km
Cloud details: Partly cloudy 1800 ft
Mostly cloudy 3500 ft
2017/09/24 17:28 KHIF 241728Z 00000KT 10SM -RA SCT018 BKN035 08/05 A2994 RMK AO2A RAB23 SLP124
KOGD - Ogden, Utah, USA
Distance from station: NNW 25mi, 40km
Updated: Sun, 24-Sep-2017 10:53am MDT
Overcast
Overcast
 Wind from NNW
Wind: NNW 9 mph , 15 km/h
Temperature: 46°F , 8°C
Wind Chill: 41°F , 5°C
Dew Point: 37°F , 3°C
Humidity: 71%
Barometer: 29.93 inHg , 1013.5 hPa
Clouds: Overcast
Visibility: 10 miles , 16 km
Cloud details: Partly cloudy 2200 ft
Mostly cloudy 3400 ft
Overcast 6000 ft
2017/09/24 16:53 KOGD 241653Z 34008KT 10SM SCT022 BKN034 OVC060 08/03 A2993 RMK AO2 SLP118 T00830033
 
K36U - Heber/Russ Mcdon, Utah, USA
Distance from station: SE 34mi, 55km
Updated: Sun, 24-Sep-2017 11:35am MDT
Snow, Overcast
Snow, Overcast
 Wind from calm
Wind: Calm
Temperature: 32°F , 0°C
Dew Point: 32°F , 0°C
Humidity: 100%
Barometer: 29.94 inHg , 1013.9 hPa
Summary: Snow
Clouds: Overcast
Visibility: 1/2 mile , 2 km
Cloud details: Overcast 600 ft
2017/09/24 17:35 K36U 241735Z AUTO 00000KT 1/2SM SN OVC006 00/00 A2994 RMK AO2
KPVU - Provo Muni, Utah, USA
Distance from station: S 45mi, 72km
Updated: Sun, 24-Sep-2017 10:56am MDT
Light rain, Overcast
Light rain, Overcast
 Wind from SSE
Wind: SSE 6 mph , 9 km/h
Temperature: 39°F , 4°C
Wind Chill: 35°F , 2°C
Dew Point: 37°F , 3°C
Humidity: 93%
Barometer: 29.98 inHg , 1015.2 hPa
Summary: Light rain
Clouds: Overcast
Visibility: 7 miles , 11 km
Cloud details: Overcast 2300 ft
2017/09/24 16:56 KPVU 241656Z 16005KT 7SM -RA OVC023 04/03 A2998 RMK AO2 SLP151 P0009 T00440033